sensor_id;sensor_type;location;lat;lon;timestamp;temperature;humidity
9730;DHT22;4904;49.152;11.004;2023-04-25T00:00:03;8.10;99.90
9730;DHT22;4904;49.152;11.004;2023-04-25T00:02:32;8.10;99.90
9730;DHT22;4904;49.152;11.004;2023-04-25T00:05:00;8.80;99.90
9730;DHT22;4904;49.152;11.004;2023-04-25T00:07:27;8.10;99.90
9730;DHT22;4904;49.152;11.004;2023-04-25T00:09:55;8.00;99.90
9730;DHT22;4904;49.152;11.004;2023-04-25T00:12:23;8.50;99.90
9730;DHT22;4904;49.152;11.004;2023-04-25T00:14:50;7.90;99.90
9730;DHT22;4904;49.152;11.004;2023-04-25T00:17:18;8.00;99.90
9730;DHT22;4904;49.152;11.004;2023-04-25T00:19:45;7.90;99.90
9730;DHT22;4904;49.152;11.004;2023-04-25T00:22:13;7.90;99.90
9730;DHT22;4904;49.152;11.004;2023-04-25T00:24:40;7.90;99.90
9730;DHT22;4904;49.152;11.004;2023-04-25T00:27:09;8.00;99.90
9730;DHT22;4904;49.152;11.004;2023-04-25T00:29:36;8.10;99.90
9730;DHT22;4904;49.152;11.004;2023-04-25T00:32:03;8.10;99.90
9730;DHT22;4904;49.152;11.004;2023-04-25T00:34:30;8.00;99.90
9730;DHT22;4904;49.152;11.004;2023-04-25T00:36:57;7.90;99.90
9730;DHT22;4904;49.152;11.004;2023-04-25T00:39:26;8.00;99.90
9730;DHT22;4904;49.152;11.004;2023-04-25T00:41:54;8.10;99.90
9730;DHT22;4904;49.152;11.004;2023-04-25T00:44:23;8.10;99.90
9730;DHT22;4904;49.152;11.004;2023-04-25T00:46:52;8.20;99.90
9730;DHT22;4904;49.152;11.004;2023-04-25T00:49:20;8.20;99.90
9730;DHT22;4904;49.152;11.004;2023-04-25T00:51:47;8.00;99.90
9730;DHT22;4904;49.152;11.004;2023-04-25T00:54:14;8.10;99.90
9730;DHT22;4904;49.152;11.004;2023-04-25T00:56:42;8.00;99.90
9730;DHT22;4904;49.152;11.004;2023-04-25T00:59:10;8.00;99.90
9730;DHT22;4904;49.152;11.004;2023-04-25T01:01:40;8.00;99.90
9730;DHT22;4904;49.152;11.004;2023-04-25T01:04:08;8.40;99.90
9730;DHT22;4904;49.152;11.004;2023-04-25T01:06:35;8.10;99.90
9730;DHT22;4904;49.152;11.004;2023-04-25T01:09:03;7.90;99.90
9730;DHT22;4904;49.152;11.004;2023-04-25T01:11:30;7.90;99.90
9730;DHT22;4904;49.152;11.004;2023-04-25T01:13:57;8.10;99.90
9730;DHT22;4904;49.152;11.004;2023-04-25T01:16:25;7.90;99.90
9730;DHT22;4904;49.152;11.004;2023-04-25T01:18:54;7.90;99.90
9730;DHT22;4904;49.152;11.004;2023-04-25T01:21:23;8.10;99.90
9730;DHT22;4904;49.152;11.004;2023-04-25T01:23:52;8.00;99.90
9730;DHT22;4904;49.152;11.004;2023-04-25T01:26:21;8.00;99.90
9730;DHT22;4904;49.152;11.004;2023-04-25T01:28:49;8.30;99.90
9730;DHT22;4904;49.152;11.004;2023-04-25T01:31:16;7.90;99.90
9730;DHT22;4904;49.152;11.004;2023-04-25T01:33:44;7.90;99.90
9730;DHT22;4904;49.152;11.004;2023-04-25T01:36:11;7.80;99.90
9730;DHT22;4904;49.152;11.004;2023-04-25T01:38:40;7.70;99.90
9730;DHT22;4904;49.152;11.004;2023-04-25T01:41:09;7.60;99.90
9730;DHT22;4904;49.152;11.004;2023-04-25T01:43:37;7.50;99.90
9730;DHT22;4904;49.152;11.004;2023-04-25T01:46:04;7.50;99.90
9730;DHT22;4904;49.152;11.004;2023-04-25T01:48:31;7.50;99.90
9730;DHT22;4904;49.152;11.004;2023-04-25T01:50:58;7.40;99.90
9730;DHT22;4904;49.152;11.004;2023-04-25T01:53:25;7.30;99.90
9730;DHT22;4904;49.152;11.004;2023-04-25T01:55:54;7.30;99.90
9730;DHT22;4904;49.152;11.004;2023-04-25T01:58:21;7.30;99.90
9730;DHT22;4904;49.152;11.004;2023-04-25T02:00:48;7.30;99.90
9730;DHT22;4904;49.152;11.004;2023-04-25T02:03:16;7.30;99.90
9730;DHT22;4904;49.152;11.004;2023-04-25T02:05:43;7.60;99.90
9730;DHT22;4904;49.152;11.004;2023-04-25T02:08:10;7.30;99.90
9730;DHT22;4904;49.152;11.004;2023-04-25T02:10:37;7.30;99.90
9730;DHT22;4904;49.152;11.004;2023-04-25T02:13:06;7.30;99.90
9730;DHT22;4904;49.152;11.004;2023-04-25T02:15:33;7.20;99.90
9730;DHT22;4904;49.152;11.004;2023-04-25T02:18:00;7.30;99.90
9730;DHT22;4904;49.152;11.004;2023-04-25T02:20:28;7.40;99.90
9730;DHT22;4904;49.152;11.004;2023-04-25T02:22:56;7.30;99.90
9730;DHT22;4904;49.152;11.004;2023-04-25T02:25:23;7.30;99.90
9730;DHT22;4904;49.152;11.004;2023-04-25T02:27:50;7.30;99.90
9730;DHT22;4904;49.152;11.004;2023-04-25T02:30:18;7.30;99.90
9730;DHT22;4904;49.152;11.004;2023-04-25T02:32:45;7.20;99.90
9730;DHT22;4904;49.152;11.004;2023-04-25T02:35:12;7.50;99.90
9730;DHT22;4904;49.152;11.004;2023-04-25T02:37:40;7.40;99.90
9730;DHT22;4904;49.152;11.004;2023-04-25T02:40:08;8.20;99.90
9730;DHT22;4904;49.152;11.004;2023-04-25T02:42:35;7.40;99.90
9730;DHT22;4904;49.152;11.004;2023-04-25T02:45:03;7.70;99.90
9730;DHT22;4904;49.152;11.004;2023-04-25T02:47:32;7.40;99.90
9730;DHT22;4904;49.152;11.004;2023-04-25T02:49:59;7.40;99.90
9730;DHT22;4904;49.152;11.004;2023-04-25T02:52:26;7.40;99.90
9730;DHT22;4904;49.152;11.004;2023-04-25T02:54:53;7.40;99.90
9730;DHT22;4904;49.152;11.004;2023-04-25T02:57:20;7.30;99.90
9730;DHT22;4904;49.152;11.004;2023-04-25T02:59:47;7.30;99.90
9730;DHT22;4904;49.152;11.004;2023-04-25T03:02:14;7.30;99.90
9730;DHT22;4904;49.152;11.004;2023-04-25T03:04:42;7.30;99.90
9730;DHT22;4904;49.152;11.004;2023-04-25T03:07:09;7.50;99.90
9730;DHT22;4904;49.152;11.004;2023-04-25T03:09:36;7.30;99.90
9730;DHT22;4904;49.152;11.004;2023-04-25T03:12:04;7.30;99.90
9730;DHT22;4904;49.152;11.004;2023-04-25T03:14:31;7.20;99.90
9730;DHT22;4904;49.152;11.004;2023-04-25T03:16:58;7.20;99.90
9730;DHT22;4904;49.152;11.004;2023-04-25T03:19:25;7.30;99.90
9730;DHT22;4904;49.152;11.004;2023-04-25T03:21:53;7.20;99.90
9730;DHT22;4904;49.152;11.004;2023-04-25T03:24:20;7.20;99.90
9730;DHT22;4904;49.152;11.004;2023-04-25T03:26:47;7.20;99.90
9730;DHT22;4904;49.152;11.004;2023-04-25T03:29:14;7.10;99.90
9730;DHT22;4904;49.152;11.004;2023-04-25T03:31:41;7.20;99.90
9730;DHT22;4904;49.152;11.004;2023-04-25T03:34:09;7.20;99.90
9730;DHT22;4904;49.152;11.004;2023-04-25T03:36:35;7.20;99.90
9730;DHT22;4904;49.152;11.004;2023-04-25T03:39:04;7.60;99.90
9730;DHT22;4904;49.152;11.004;2023-04-25T03:41:31;7.20;99.90
9730;DHT22;4904;49.152;11.004;2023-04-25T03:43:58;7.50;99.90
9730;DHT22;4904;49.152;11.004;2023-04-25T03:46:25;8.30;99.90
9730;DHT22;4904;49.152;11.004;2023-04-25T03:48:52;7.20;99.90
9730;DHT22;4904;49.152;11.004;2023-04-25T03:51:19;7.20;99.90
9730;DHT22;4904;49.152;11.004;2023-04-25T03:53:46;7.20;99.90
9730;DHT22;4904;49.152;11.004;2023-04-25T03:56:14;7.20;99.90
9730;DHT22;4904;49.152;11.004;2023-04-25T03:58:41;7.20;99.90
9730;DHT22;4904;49.152;11.004;2023-04-25T04:01:09;8.00;99.90
9730;DHT22;4904;49.152;11.004;2023-04-25T04:03:36;7.30;99.90
9730;DHT22;4904;49.152;11.004;2023-04-25T04:06:04;7.20;99.90
9730;DHT22;4904;49.152;11.004;2023-04-25T04:08:32;7.20;99.90
9730;DHT22;4904;49.152;11.004;2023-04-25T04:10:59;7.20;99.90
9730;DHT22;4904;49.152;11.004;2023-04-25T04:13:28;7.60;99.90
9730;DHT22;4904;49.152;11.004;2023-04-25T04:15:56;7.30;99.90
9730;DHT22;4904;49.152;11.004;2023-04-25T04:18:22;7.20;99.90
9730;DHT22;4904;49.152;11.004;2023-04-25T04:20:50;7.30;99.90
9730;DHT22;4904;49.152;11.004;2023-04-25T04:23:17;7.40;99.90
9730;DHT22;4904;49.152;11.004;2023-04-25T04:25:43;7.30;99.90
9730;DHT22;4904;49.152;11.004;2023-04-25T04:28:11;7.30;99.90
9730;DHT22;4904;49.152;11.004;2023-04-25T04:30:40;7.40;99.90
9730;DHT22;4904;49.152;11.004;2023-04-25T04:33:08;7.20;99.90
9730;DHT22;4904;49.152;11.004;2023-04-25T04:35:35;7.20;99.90
9730;DHT22;4904;49.152;11.004;2023-04-25T04:38:02;7.30;99.90
9730;DHT22;4904;49.152;11.004;2023-04-25T04:40:29;7.60;99.90
9730;DHT22;4904;49.152;11.004;2023-04-25T04:42:57;7.30;99.90
9730;DHT22;4904;49.152;11.004;2023-04-25T04:45:24;7.30;99.90
9730;DHT22;4904;49.152;11.004;2023-04-25T04:47:54;7.30;99.90
9730;DHT22;4904;49.152;11.004;2023-04-25T04:50:22;7.40;99.90
9730;DHT22;4904;49.152;11.004;2023-04-25T04:52:49;7.40;99.90
9730;DHT22;4904;49.152;11.004;2023-04-25T04:55:16;7.40;99.90
9730;DHT22;4904;49.152;11.004;2023-04-25T04:57:43;7.60;99.90
9730;DHT22;4904;49.152;11.004;2023-04-25T05:00:12;7.50;99.90
9730;DHT22;4904;49.152;11.004;2023-04-25T05:02:39;7.50;99.90
9730;DHT22;4904;49.152;11.004;2023-04-25T05:05:08;7.70;99.90
9730;DHT22;4904;49.152;11.004;2023-04-25T05:07:35;7.60;99.90
9730;DHT22;4904;49.152;11.004;2023-04-25T05:10:03;7.60;99.90
9730;DHT22;4904;49.152;11.004;2023-04-25T05:12:30;7.70;99.90
9730;DHT22;4904;49.152;11.004;2023-04-25T05:14:57;7.60;99.90
9730;DHT22;4904;49.152;11.004;2023-04-25T05:17:24;7.60;99.90
9730;DHT22;4904;49.152;11.004;2023-04-25T05:19:51;7.80;99.90
9730;DHT22;4904;49.152;11.004;2023-04-25T05:22:20;7.60;99.90
9730;DHT22;4904;49.152;11.004;2023-04-25T05:24:46;7.80;99.90
9730;DHT22;4904;49.152;11.004;2023-04-25T05:27:15;7.60;99.90
9730;DHT22;4904;49.152;11.004;2023-04-25T05:29:43;8.00;99.90
9730;DHT22;4904;49.152;11.004;2023-04-25T05:32:10;7.60;99.90
9730;DHT22;4904;49.152;11.004;2023-04-25T05:34:37;7.60;99.90
9730;DHT22;4904;49.152;11.004;2023-04-25T05:37:04;7.60;99.90
9730;DHT22;4904;49.152;11.004;2023-04-25T05:39:33;7.60;99.90
9730;DHT22;4904;49.152;11.004;2023-04-25T05:42:00;7.70;99.90
9730;DHT22;4904;49.152;11.004;2023-04-25T05:44:27;7.70;99.90
9730;DHT22;4904;49.152;11.004;2023-04-25T05:46:54;7.60;99.90
9730;DHT22;4904;49.152;11.004;2023-04-25T05:49:21;7.70;99.90
9730;DHT22;4904;49.152;11.004;2023-04-25T05:51:49;7.80;99.90
9730;DHT22;4904;49.152;11.004;2023-04-25T05:54:16;7.70;99.90
9730;DHT22;4904;49.152;11.004;2023-04-25T05:56:44;7.70;99.90
9730;DHT22;4904;49.152;11.004;2023-04-25T05:59:11;7.70;99.90
9730;DHT22;4904;49.152;11.004;2023-04-25T06:01:38;7.70;99.90
9730;DHT22;4904;49.152;11.004;2023-04-25T06:04:05;7.80;99.90
9730;DHT22;4904;49.152;11.004;2023-04-25T06:06:32;7.90;99.90
9730;DHT22;4904;49.152;11.004;2023-04-25T06:09:00;7.90;99.90
9730;DHT22;4904;49.152;11.004;2023-04-25T06:11:26;7.80;99.90
9730;DHT22;4904;49.152;11.004;2023-04-25T06:13:55;8.00;99.90
9730;DHT22;4904;49.152;11.004;2023-04-25T06:16:22;7.70;99.90
9730;DHT22;4904;49.152;11.004;2023-04-25T06:18:51;7.80;99.90
9730;DHT22;4904;49.152;11.004;2023-04-25T06:21:18;7.90;99.90
9730;DHT22;4904;49.152;11.004;2023-04-25T06:23:45;8.10;99.90
9730;DHT22;4904;49.152;11.004;2023-04-25T06:26:12;8.50;99.90
9730;DHT22;4904;49.152;11.004;2023-04-25T06:28:39;8.20;99.90
9730;DHT22;4904;49.152;11.004;2023-04-25T06:31:07;8.30;99.90
9730;DHT22;4904;49.152;11.004;2023-04-25T06:33:34;8.50;99.90
9730;DHT22;4904;49.152;11.004;2023-04-25T06:36:01;8.60;99.90
9730;DHT22;4904;49.152;11.004;2023-04-25T06:38:28;8.60;99.90
9730;DHT22;4904;49.152;11.004;2023-04-25T06:40:56;8.50;99.90
9730;DHT22;4904;49.152;11.004;2023-04-25T06:43:23;8.50;99.90
9730;DHT22;4904;49.152;11.004;2023-04-25T06:45:50;8.80;99.90
9730;DHT22;4904;49.152;11.004;2023-04-25T06:48:19;8.50;99.90
9730;DHT22;4904;49.152;11.004;2023-04-25T06:50:46;8.50;99.90
9730;DHT22;4904;49.152;11.004;2023-04-25T06:53:13;8.30;99.90
9730;DHT22;4904;49.152;11.004;2023-04-25T06:55:40;8.30;99.90
9730;DHT22;4904;49.152;11.004;2023-04-25T06:58:07;8.30;99.90
9730;DHT22;4904;49.152;11.004;2023-04-25T07:00:33;8.20;99.90
9730;DHT22;4904;49.152;11.004;2023-04-25T07:03:01;8.10;99.90
9730;DHT22;4904;49.152;11.004;2023-04-25T07:05:29;8.10;99.90
9730;DHT22;4904;49.152;11.004;2023-04-25T07:07:56;9.10;99.90
9730;DHT22;4904;49.152;11.004;2023-04-25T07:10:23;9.10;99.90
9730;DHT22;4904;49.152;11.004;2023-04-25T07:12:50;8.30;99.90
9730;DHT22;4904;49.152;11.004;2023-04-25T07:15:17;8.10;99.90
9730;DHT22;4904;49.152;11.004;2023-04-25T07:17:45;8.10;99.90
9730;DHT22;4904;49.152;11.004;2023-04-25T07:20:12;8.10;99.90
9730;DHT22;4904;49.152;11.004;2023-04-25T07:22:40;8.20;99.90
9730;DHT22;4904;49.152;11.004;2023-04-25T07:25:07;8.10;99.90
9730;DHT22;4904;49.152;11.004;2023-04-25T07:27:35;8.10;99.90
9730;DHT22;4904;49.152;11.004;2023-04-25T07:30:03;8.00;99.90
9730;DHT22;4904;49.152;11.004;2023-04-25T07:32:30;7.90;99.90
9730;DHT22;4904;49.152;11.004;2023-04-25T07:34:57;7.80;99.90
9730;DHT22;4904;49.152;11.004;2023-04-25T07:37:24;7.60;99.90
9730;DHT22;4904;49.152;11.004;2023-04-25T07:39:53;7.60;99.90
9730;DHT22;4904;49.152;11.004;2023-04-25T07:42:20;7.50;99.90
9730;DHT22;4904;49.152;11.004;2023-04-25T07:44:48;7.50;99.90
9730;DHT22;4904;49.152;11.004;2023-04-25T07:47:15;7.50;99.90
9730;DHT22;4904;49.152;11.004;2023-04-25T07:49:44;7.60;99.90
9730;DHT22;4904;49.152;11.004;2023-04-25T07:52:12;7.60;99.90
9730;DHT22;4904;49.152;11.004;2023-04-25T07:54:39;7.60;99.90
9730;DHT22;4904;49.152;11.004;2023-04-25T07:57:08;7.60;99.90
9730;DHT22;4904;49.152;11.004;2023-04-25T07:59:35;7.80;99.90
9730;DHT22;4904;49.152;11.004;2023-04-25T08:02:01;7.60;99.90
9730;DHT22;4904;49.152;11.004;2023-04-25T08:04:29;7.70;99.90
9730;DHT22;4904;49.152;11.004;2023-04-25T08:06:56;7.90;99.90
9730;DHT22;4904;49.152;11.004;2023-04-25T08:09:23;7.70;99.90
9730;DHT22;4904;49.152;11.004;2023-04-25T08:11:50;7.70;99.90
9730;DHT22;4904;49.152;11.004;2023-04-25T08:14:19;7.60;99.90
9730;DHT22;4904;49.152;11.004;2023-04-25T08:16:46;7.60;99.90
9730;DHT22;4904;49.152;11.004;2023-04-25T08:19:13;7.50;99.90
9730;DHT22;4904;49.152;11.004;2023-04-25T08:21:40;7.30;99.90
9730;DHT22;4904;49.152;11.004;2023-04-25T08:24:08;7.30;99.90
9730;DHT22;4904;49.152;11.004;2023-04-25T08:26:35;7.20;99.90
9730;DHT22;4904;49.152;11.004;2023-04-25T08:29:02;7.10;99.90
9730;DHT22;4904;49.152;11.004;2023-04-25T08:31:31;7.00;99.90
9730;DHT22;4904;49.152;11.004;2023-04-25T08:33:58;6.90;99.90
9730;DHT22;4904;49.152;11.004;2023-04-25T08:36:26;6.90;99.90
9730;DHT22;4904;49.152;11.004;2023-04-25T08:38:53;7.00;99.90
9730;DHT22;4904;49.152;11.004;2023-04-25T08:41:21;7.00;99.90
9730;DHT22;4904;49.152;11.004;2023-04-25T08:43:49;6.90;99.90
9730;DHT22;4904;49.152;11.004;2023-04-25T08:46:18;7.00;99.90
9730;DHT22;4904;49.152;11.004;2023-04-25T08:48:46;7.10;99.90
9730;DHT22;4904;49.152;11.004;2023-04-25T08:51:18;7.20;99.90
9730;DHT22;4904;49.152;11.004;2023-04-25T08:53:49;7.40;99.90
9730;DHT22;4904;49.152;11.004;2023-04-25T08:56:18;7.50;99.90
9730;DHT22;4904;49.152;11.004;2023-04-25T08:58:48;7.60;99.90
9730;DHT22;4904;49.152;11.004;2023-04-25T09:01:15;7.60;99.90
9730;DHT22;4904;49.152;11.004;2023-04-25T09:03:43;7.80;99.90
9730;DHT22;4904;49.152;11.004;2023-04-25T09:06:14;7.80;99.90
9730;DHT22;4904;49.152;11.004;2023-04-25T09:08:41;7.90;99.90
9730;DHT22;4904;49.152;11.004;2023-04-25T09:11:09;8.10;99.90
9730;DHT22;4904;49.152;11.004;2023-04-25T09:13:36;8.20;99.90
9730;DHT22;4904;49.152;11.004;2023-04-25T09:16:03;8.60;99.90
9730;DHT22;4904;49.152;11.004;2023-04-25T09:18:31;8.40;99.90
9730;DHT22;4904;49.152;11.004;2023-04-25T09:21:04;8.20;99.90
9730;DHT22;4904;49.152;11.004;2023-04-25T09:23:39;8.60;99.90
9730;DHT22;4904;49.152;11.004;2023-04-25T09:26:07;8.40;99.90
9730;DHT22;4904;49.152;11.004;2023-04-25T09:28:34;8.60;99.90
9730;DHT22;4904;49.152;11.004;2023-04-25T09:31:03;8.80;99.90
9730;DHT22;4904;49.152;11.004;2023-04-25T09:33:31;8.90;99.90
9730;DHT22;4904;49.152;11.004;2023-04-25T09:36:05;8.80;99.90
9730;DHT22;4904;49.152;11.004;2023-04-25T09:38:40;9.00;99.90
9730;DHT22;4904;49.152;11.004;2023-04-25T09:41:08;8.80;99.90
9730;DHT22;4904;49.152;11.004;2023-04-25T09:43:35;8.60;99.90
9730;DHT22;4904;49.152;11.004;2023-04-25T09:46:08;8.70;99.90
9730;DHT22;4904;49.152;11.004;2023-04-25T09:48:36;9.00;99.90
9730;DHT22;4904;49.152;11.004;2023-04-25T09:51:05;9.10;99.90
9730;DHT22;4904;49.152;11.004;2023-04-25T09:53:34;9.40;99.90
9730;DHT22;4904;49.152;11.004;2023-04-25T09:56:04;9.40;99.90
9730;DHT22;4904;49.152;11.004;2023-04-25T09:58:32;9.50;99.90
9730;DHT22;4904;49.152;11.004;2023-04-25T10:01:02;9.40;99.90
9730;DHT22;4904;49.152;11.004;2023-04-25T10:03:30;9.30;99.90
9730;DHT22;4904;49.152;11.004;2023-04-25T10:06:00;9.30;99.90
9730;DHT22;4904;49.152;11.004;2023-04-25T10:08:32;9.60;99.90
9730;DHT22;4904;49.152;11.004;2023-04-25T10:11:02;9.50;99.90
9730;DHT22;4904;49.152;11.004;2023-04-25T10:13:31;9.30;99.90
9730;DHT22;4904;49.152;11.004;2023-04-25T10:15:58;9.40;99.90
9730;DHT22;4904;49.152;11.004;2023-04-25T10:18:26;9.30;99.90
9730;DHT22;4904;49.152;11.004;2023-04-25T10:20:54;9.00;99.90
9730;DHT22;4904;49.152;11.004;2023-04-25T10:23:22;9.00;99.90
9730;DHT22;4904;49.152;11.004;2023-04-25T10:25:51;9.10;99.90
9730;DHT22;4904;49.152;11.004;2023-04-25T10:28:20;9.20;99.90
9730;DHT22;4904;49.152;11.004;2023-04-25T10:31:00;9.50;99.90
9730;DHT22;4904;49.152;11.004;2023-04-25T10:33:35;9.60;99.90
9730;DHT22;4904;49.152;11.004;2023-04-25T10:36:10;9.50;99.90
9730;DHT22;4904;49.152;11.004;2023-04-25T10:38:38;9.60;99.90
9730;DHT22;4904;49.152;11.004;2023-04-25T10:41:06;9.70;99.90
9730;DHT22;4904;49.152;11.004;2023-04-25T10:43:37;9.70;99.90
9730;DHT22;4904;49.152;11.004;2023-04-25T10:46:17;9.80;99.90
9730;DHT22;4904;49.152;11.004;2023-04-25T10:48:46;10.00;99.90
9730;DHT22;4904;49.152;11.004;2023-04-25T10:51:19;10.10;99.90
9730;DHT22;4904;49.152;11.004;2023-04-25T10:53:56;10.30;99.90
9730;DHT22;4904;49.152;11.004;2023-04-25T10:56:25;10.20;99.90
9730;DHT22;4904;49.152;11.004;2023-04-25T10:59:04;10.10;99.90
9730;DHT22;4904;49.152;11.004;2023-04-25T11:01:36;10.00;99.90
9730;DHT22;4904;49.152;11.004;2023-04-25T11:04:04;10.10;99.90
9730;DHT22;4904;49.152;11.004;2023-04-25T11:06:40;10.30;99.90
9730;DHT22;4904;49.152;11.004;2023-04-25T11:09:10;10.60;99.90
9730;DHT22;4904;49.152;11.004;2023-04-25T11:11:39;10.90;99.90
9730;DHT22;4904;49.152;11.004;2023-04-25T11:14:07;11.20;99.90
9730;DHT22;4904;49.152;11.004;2023-04-25T11:16:34;11.20;99.90
9730;DHT22;4904;49.152;11.004;2023-04-25T11:19:02;11.30;99.90
9730;DHT22;4904;49.152;11.004;2023-04-25T11:21:30;11.20;99.90
9730;DHT22;4904;49.152;11.004;2023-04-25T11:23:59;11.20;99.90
9730;DHT22;4904;49.152;11.004;2023-04-25T11:26:27;11.30;99.90
9730;DHT22;4904;49.152;11.004;2023-04-25T11:28:57;11.00;99.90
9730;DHT22;4904;49.152;11.004;2023-04-25T11:31:26;10.70;99.90
9730;DHT22;4904;49.152;11.004;2023-04-25T11:33:53;10.80;99.90
9730;DHT22;4904;49.152;11.004;2023-04-25T11:36:22;10.70;99.90
9730;DHT22;4904;49.152;11.004;2023-04-25T11:38:52;10.50;99.90
9730;DHT22;4904;49.152;11.004;2023-04-25T11:41:20;10.50;99.90
9730;DHT22;4904;49.152;11.004;2023-04-25T11:43:47;10.40;99.90
9730;DHT22;4904;49.152;11.004;2023-04-25T11:46:17;10.40;99.90
9730;DHT22;4904;49.152;11.004;2023-04-25T11:48:46;10.50;99.90
9730;DHT22;4904;49.152;11.004;2023-04-25T11:51:16;10.50;99.90
9730;DHT22;4904;49.152;11.004;2023-04-25T11:53:44;10.40;99.90
9730;DHT22;4904;49.152;11.004;2023-04-25T11:56:11;10.50;99.90
9730;DHT22;4904;49.152;11.004;2023-04-25T11:58:55;10.50;99.90
9730;DHT22;4904;49.152;11.004;2023-04-25T12:01:26;10.70;99.90
9730;DHT22;4904;49.152;11.004;2023-04-25T12:03:55;10.90;99.90
9730;DHT22;4904;49.152;11.004;2023-04-25T12:06:26;11.00;99.90
9730;DHT22;4904;49.152;11.004;2023-04-25T12:09:01;11.10;99.90
9730;DHT22;4904;49.152;11.004;2023-04-25T12:11:30;10.90;99.90
9730;DHT22;4904;49.152;11.004;2023-04-25T12:14:02;10.70;99.90
9730;DHT22;4904;49.152;11.004;2023-04-25T12:16:30;10.60;99.90
9730;DHT22;4904;49.152;11.004;2023-04-25T12:19:07;10.60;99.90
9730;DHT22;4904;49.152;11.004;2023-04-25T12:21:34;10.60;99.90
9730;DHT22;4904;49.152;11.004;2023-04-25T12:24:12;10.90;99.90
9730;DHT22;4904;49.152;11.004;2023-04-25T12:26:47;10.60;99.90
9730;DHT22;4904;49.152;11.004;2023-04-25T12:29:19;10.60;99.90
9730;DHT22;4904;49.152;11.004;2023-04-25T12:31:46;10.70;99.90
9730;DHT22;4904;49.152;11.004;2023-04-25T12:34:14;10.70;99.90
9730;DHT22;4904;49.152;11.004;2023-04-25T12:36:41;10.70;99.90
9730;DHT22;4904;49.152;11.004;2023-04-25T12:39:08;10.70;99.90
9730;DHT22;4904;49.152;11.004;2023-04-25T12:41:35;10.80;99.90
9730;DHT22;4904;49.152;11.004;2023-04-25T12:44:03;10.90;99.90
9730;DHT22;4904;49.152;11.004;2023-04-25T12:46:30;10.90;99.90
9730;DHT22;4904;49.152;11.004;2023-04-25T12:48:57;11.20;99.90
9730;DHT22;4904;49.152;11.004;2023-04-25T12:51:25;11.20;99.90
9730;DHT22;4904;49.152;11.004;2023-04-25T12:53:53;11.30;99.90
9730;DHT22;4904;49.152;11.004;2023-04-25T12:56:20;11.30;99.90
9730;DHT22;4904;49.152;11.004;2023-04-25T12:58:48;11.20;99.90
9730;DHT22;4904;49.152;11.004;2023-04-25T13:01:15;11.10;99.90
9730;DHT22;4904;49.152;11.004;2023-04-25T13:03:42;10.80;99.90
9730;DHT22;4904;49.152;11.004;2023-04-25T13:06:08;10.70;99.90
9730;DHT22;4904;49.152;11.004;2023-04-25T13:08:37;10.60;99.90
9730;DHT22;4904;49.152;11.004;2023-04-25T13:11:04;10.50;99.90
9730;DHT22;4904;49.152;11.004;2023-04-25T13:13:31;10.50;99.90
9730;DHT22;4904;49.152;11.004;2023-04-25T13:16:00;10.60;99.90
9730;DHT22;4904;49.152;11.004;2023-04-25T13:18:27;10.50;99.90
9730;DHT22;4904;49.152;11.004;2023-04-25T13:20:54;10.70;99.90
9730;DHT22;4904;49.152;11.004;2023-04-25T13:23:21;10.70;99.90
9730;DHT22;4904;49.152;11.004;2023-04-25T13:25:50;10.70;99.90
9730;DHT22;4904;49.152;11.004;2023-04-25T13:28:17;10.90;99.90
9730;DHT22;4904;49.152;11.004;2023-04-25T13:30:44;10.80;99.90
9730;DHT22;4904;49.152;11.004;2023-04-25T13:33:13;10.70;99.90
9730;DHT22;4904;49.152;11.004;2023-04-25T13:35:41;10.70;99.90
9730;DHT22;4904;49.152;11.004;2023-04-25T13:38:08;10.50;99.90
9730;DHT22;4904;49.152;11.004;2023-04-25T13:40:35;10.60;99.90
9730;DHT22;4904;49.152;11.004;2023-04-25T13:43:04;10.50;99.90
9730;DHT22;4904;49.152;11.004;2023-04-25T13:45:32;10.40;99.90
9730;DHT22;4904;49.152;11.004;2023-04-25T13:47:59;10.40;99.90
9730;DHT22;4904;49.152;11.004;2023-04-25T13:50:26;11.00;99.90
9730;DHT22;4904;49.152;11.004;2023-04-25T13:52:54;10.40;99.90
9730;DHT22;4904;49.152;11.004;2023-04-25T13:55:21;10.20;99.90
9730;DHT22;4904;49.152;11.004;2023-04-25T13:57:48;9.90;99.90
9730;DHT22;4904;49.152;11.004;2023-04-25T14:00:18;9.80;99.90
9730;DHT22;4904;49.152;11.004;2023-04-25T14:02:45;9.70;99.90
9730;DHT22;4904;49.152;11.004;2023-04-25T14:05:13;9.60;99.90
9730;DHT22;4904;49.152;11.004;2023-04-25T14:07:40;9.60;99.90
9730;DHT22;4904;49.152;11.004;2023-04-25T14:10:07;9.60;99.90
9730;DHT22;4904;49.152;11.004;2023-04-25T14:12:35;9.60;99.90
9730;DHT22;4904;49.152;11.004;2023-04-25T14:15:03;9.60;99.90
9730;DHT22;4904;49.152;11.004;2023-04-25T14:17:32;9.70;99.90
9730;DHT22;4904;49.152;11.004;2023-04-25T14:19:58;9.70;99.90
9730;DHT22;4904;49.152;11.004;2023-04-25T14:22:26;9.70;99.90
9730;DHT22;4904;49.152;11.004;2023-04-25T14:24:53;9.80;99.90
9730;DHT22;4904;49.152;11.004;2023-04-25T14:27:20;9.90;99.90
9730;DHT22;4904;49.152;11.004;2023-04-25T14:29:47;10.20;99.90
9730;DHT22;4904;49.152;11.004;2023-04-25T14:32:14;10.40;99.90
9730;DHT22;4904;49.152;11.004;2023-04-25T14:34:43;10.50;99.90
9730;DHT22;4904;49.152;11.004;2023-04-25T14:37:10;10.60;99.90
9730;DHT22;4904;49.152;11.004;2023-04-25T14:39:38;10.50;99.90
9730;DHT22;4904;49.152;11.004;2023-04-25T14:42:05;10.60;99.90
9730;DHT22;4904;49.152;11.004;2023-04-25T14:44:32;10.70;99.90
9730;DHT22;4904;49.152;11.004;2023-04-25T14:46:59;10.60;99.90
9730;DHT22;4904;49.152;11.004;2023-04-25T14:49:26;10.60;99.90
9730;DHT22;4904;49.152;11.004;2023-04-25T14:51:55;10.60;99.90
9730;DHT22;4904;49.152;11.004;2023-04-25T14:54:22;10.30;99.90
9730;DHT22;4904;49.152;11.004;2023-04-25T14:56:49;10.40;99.90
9730;DHT22;4904;49.152;11.004;2023-04-25T14:59:16;10.40;99.90
9730;DHT22;4904;49.152;11.004;2023-04-25T15:01:43;10.40;99.90
9730;DHT22;4904;49.152;11.004;2023-04-25T15:04:11;10.50;99.90
9730;DHT22;4904;49.152;11.004;2023-04-25T15:06:39;10.80;99.90
9730;DHT22;4904;49.152;11.004;2023-04-25T15:09:08;10.70;99.90
9730;DHT22;4904;49.152;11.004;2023-04-25T15:11:36;10.80;99.90
9730;DHT22;4904;49.152;11.004;2023-04-25T15:14:04;11.50;99.90
9730;DHT22;4904;49.152;11.004;2023-04-25T15:16:31;10.60;99.90
9730;DHT22;4904;49.152;11.004;2023-04-25T15:18:58;10.50;99.90
9730;DHT22;4904;49.152;11.004;2023-04-25T15:21:29;10.30;99.90
9730;DHT22;4904;49.152;11.004;2023-04-25T15:23:57;10.50;99.90
9730;DHT22;4904;49.152;11.004;2023-04-25T15:26:26;10.60;99.90
9730;DHT22;4904;49.152;11.004;2023-04-25T15:28:53;10.30;99.90
9730;DHT22;4904;49.152;11.004;2023-04-25T15:31:21;10.40;99.90
9730;DHT22;4904;49.152;11.004;2023-04-25T15:33:49;10.30;99.90
9730;DHT22;4904;49.152;11.004;2023-04-25T15:36:16;10.80;99.90
9730;DHT22;4904;49.152;11.004;2023-04-25T15:38:44;11.40;99.90
9730;DHT22;4904;49.152;11.004;2023-04-25T15:41:12;11.30;99.90
9730;DHT22;4904;49.152;11.004;2023-04-25T15:43:41;10.80;99.90
9730;DHT22;4904;49.152;11.004;2023-04-25T15:46:09;11.40;99.90
9730;DHT22;4904;49.152;11.004;2023-04-25T15:48:36;11.30;99.90
9730;DHT22;4904;49.152;11.004;2023-04-25T15:51:03;11.30;99.90
9730;DHT22;4904;49.152;11.004;2023-04-25T15:53:30;11.50;99.90
9730;DHT22;4904;49.152;11.004;2023-04-25T15:56:02;11.50;99.90
9730;DHT22;4904;49.152;11.004;2023-04-25T15:58:30;11.40;99.90
9730;DHT22;4904;49.152;11.004;2023-04-25T16:00:59;10.60;99.90